Latest Weather Observations for Ballarat

IDV60801

Issued at 4:02 am EDT Wednesday 25 January 2017 (issued every 30 minutes, with the page automatically refreshed every 10 minutes)

About weather observations | Map of weather stations | Latest weather observations for VIC | Other Formats
Station Details ID: 089002 Name: BALLARAT AERODROME Lat: -37.51 Lon: 143.79 Height: 435.2 m
Data from the previous 72 hours. | See also: Recent months at Ballarat
Date/Time
EDT
Temp
°C
App
Temp
°C
Dew
Point
°C
Rel
Hum
%
Delta-T
°C
Wind Press
QNH
hPa
Press
MSL
hPa
Rain since
9am
mm
Dir  Spd
km/h
Gust
km/h
Spd
kts
Gust
kts
25/04:00am 8.9 5.4 8.6 98 0.1 SSE 17 20 9 11 1019.8 1018.5 0.0
25/03:30am 9.0 5.5 8.7 98 0.1 SSE 17 22 9 12 1020.2 1019.0 0.0
25/03:00am 9.4 6.7 9.1 98 0.2 SSE 13 19 7 10 1020.8 1019.5 0.0
25/02:30am 9.3 7.4 9.0 98 0.2 S 9 11 5 6 1021.0 1019.7 0.0
25/02:00am 9.4 7.1 8.9 97 0.3 S 11 15 6 8 1021.0 1019.7 0.0
25/01:30am 9.5 6.6 8.3 92 0.6 S 13 15 7 8 1021.3 1020.0 0.0
25/01:00am 9.9 6.6 8.0 88 0.9 S 15 19 8 10 1021.4 1020.1 0.0
25/12:30am 10.9 7.6 8.0 82 1.4 S 15 22 8 12 1021.7 1020.4 0.0
25/12:00am 11.1 7.7 7.8 80 1.6 SSE 15 20 8 11 1021.7 1020.4 0.0
 
Date/Time
EDT
Temp
°C
App
Temp
°C
Dew
Point
°C
Rel
Hum
%
Delta-T
°C
Wind Press
QNH
hPa
Press
MSL
hPa
Rain since
9am
mm
Dir  Spd
km/h
Gust
km/h
Spd
kts
Gust
kts
24/11:30pm 11.5 7.4 7.8 78 1.8 SSE 19 26 10 14 1021.5 1020.2 0.0
24/11:00pm 12.1 7.4 7.6 74 2.2 SSE 22 32 12 17 1021.5 1020.2 0.0
24/10:30pm 12.6 8.3 7.7 72 2.5 SSE 20 28 11 15 1021.5 1020.2 0.0
24/10:00pm 13.0 8.6 7.2 68 2.9 S 20 26 11 14 1021.3 1020.0 0.0
24/09:30pm 13.9 9.1 7.2 64 3.3 S 22 30 12 16 1020.8 1019.5 0.0
24/09:00pm 14.7 10.2 6.8 59 3.9 S 20 28 11 15 1020.2 1019.0 0.0
24/08:30pm 15.8 11.1 6.0 52 4.8 S 20 26 11 14 1019.8 1018.5 0.0
24/08:00pm 16.9 12.2 6.1 49 5.4 S 20 30 11 16 1019.3 1018.0 0.0
24/07:30pm 17.9 13.2 6.1 46 5.9 S 20 28 11 15 1018.9 1017.6 0.0
24/07:00pm 18.2 13.1 6.1 45 6.1 S 22 33 12 18 1018.2 1016.9 0.0
24/06:30pm 19.0 13.6 6.2 43 6.5 S 24 35 13 19 1017.8 1016.5 0.0
24/06:00pm 19.5 13.8 6.6 43 6.6 S 26 35 14 19 1017.3 1016.0 0.0
24/05:30pm 19.8 14.6 5.5 39 7.2 SSW 22 33 12 18 1017.2 1015.9 0.0
24/05:00pm 20.8 14.9 6.0 38 7.6 S 26 39 14 21 1017.0 1015.7 0.0
24/04:30pm 21.5 16.7 5.4 35 8.2 SSW 20 28 11 15 1016.8 1015.5 0.0
24/04:00pm 20.1 14.3 4.6 36 7.7 SSW 24 35 13 19 1016.9 1015.6 0.0
24/03:30pm 20.2 15.1 6.2 40 7.2 SSW 22 35 12 19 1016.9 1015.6 0.0
24/03:00pm 20.2 15.1 5.8 39 7.3 SSW 22 32 12 17 1016.8 1015.5 0.0
24/02:30pm 20.2 15.1 6.2 40 7.2 S 22 32 12 17 1016.6 1015.3 0.0
24/02:00pm 20.0 15.1 7.1 43 6.7 SSW 22 35 12 19 1016.4 1015.1 0.0
24/01:30pm 19.1 13.9 5.6 41 6.8 SW 22 35 12 19 1016.3 1015.0 0.0
24/01:00pm 18.8 12.9 6.0 43 6.5 SSW 26 39 14 21 1016.1 1014.8 0.0
24/12:30pm 18.8 13.9 6.9 46 6.1 SW 22 35 12 19 1016.0 1014.6 0.0
24/12:00pm 18.0 13.1 8.6 54 5.0 SSW 24 35 13 19 1015.9 1014.5 0.0
24/11:30am 16.7 11.7 9.6 63 3.8 SSW 26 37 14 20 1015.9 1014.5 0.0
24/11:00am 16.7 12.5 8.4 58 4.3 SSW 20 28 11 15 1015.7 1014.3 0.0
24/10:30am 16.6 11.7 8.3 58 4.3 SSW 24 35 13 19 1015.3 1014.0 0.0
24/10:00am 16.6 12.0 9.5 63 3.8 SSW 24 37 13 20 1014.9 1013.6 0.0
24/09:30am 15.5 10.5 9.6 68 3.1 SSW 26 39 14 21 1014.6 1013.3 0.0
24/09:00am 14.2 9.4 10.2 77 2.1 SSW 26 37 14 20 1013.9 1012.5 2.8
24/08:30am 13.5 9.3 11.0 85 1.3 SSW 24 33 13 18 1013.6 1012.2 2.8
24/08:00am 13.0 8.6 11.7 92 0.7 SW 26 37 14 20 1012.7 1011.4 2.8
24/07:51am 13.2 8.8 11.8 91 0.8 SW 26 39 14 21 1012.4 1011.1 2.8
24/07:36am 14.2 10.8 13.6 96 0.3 SW 24 35 13 19 1011.9 1010.5 2.8
24/07:30am 14.4 10.6 13.6 95 0.5 SW 26 39 14 21 1011.9 1010.5 2.8
24/07:14am 14.7 12.0 13.6 93 0.6 SW 20 30 11 16 1011.2 1009.8 2.8
24/07:00am 14.8 11.7 14.5 98 0.2 SW 24 35 13 19 1011.0 1009.6 2.8
24/06:30am 15.0 12.3 14.7 98 0.2 SW 22 32 12 17 1010.1 1008.8 2.8
24/06:00am 15.2 11.9 14.9 98 0.2 SW 26 41 14 22 1009.3 1007.9 2.8
24/05:58am 15.2 11.9 14.9 98 0.2 SW 26 41 14 22 1009.3 1007.9 2.8
24/05:53am 15.3 11.6 15.0 98 0.2 SW 28 46 15 25 1009.2 1007.8 2.8
24/05:43am 15.7 11.8 15.4 98 0.2 SW 30 43 16 23 1008.8 1007.4 2.8
24/05:30am 15.9 11.5 15.7 99 0.1 WSW 33 44 18 24 1008.5 1007.1 2.8
24/05:19am 16.4 12.8 16.2 99 0.1 WSW 30 50 16 27 1008.4 1007.0 2.8
24/05:00am 16.9 14.3 16.9 100 0.0 WSW 26 41 14 22 1008.1 1006.8 2.8
24/04:30am 17.5 16.3 17.5 100 0.0 WSW 20 39 11 21 1007.6 1006.2 2.8
24/04:00am 17.7 15.1 17.7 100 0.0 WSW 28 48 15 26 1007.5 1006.1 2.8
24/03:57am 17.7 15.1 17.7 100 0.0 WSW 28 48 15 26 1007.5 1006.1 2.8
24/03:37am 18.2 15.8 18.2 100 0.0 WSW 28 44 15 24 1007.3 1005.9 2.8
24/03:30am 18.4 15.7 18.4 100 0.0 WSW 30 46 16 25 1007.1 1005.7 2.8
24/03:20am 19.4 17.4 19.2 99 0.1 W 28 54 15 29 1006.9 1005.5 2.8
24/03:18am 20.4 19.8 20.4 100 0.0 W 24 50 13 27 1006.7 1005.3 2.8
24/03:07am 21.0 20.5 20.8 99 0.1 WNW 24 32 13 17 1006.5 1005.1 2.6
24/03:00am 21.1 20.3 20.9 99 0.1 WNW 26 33 14 18 1006.4 1005.0 2.6
24/02:30am 20.9 21.3 20.7 99 0.1 NW 19 30 10 16 1006.2 1004.8 2.6
24/02:00am 21.2 21.2 21.0 99 0.1 NW 22 33 12 18 1005.8 1004.4 2.6
24/01:30am 19.7 19.4 19.5 99 0.1 N 20 24 11 13 1005.8 1004.4 2.6
24/01:00am 18.8 19.4 18.6 99 0.1 N 13 15 7 8 1006.2 1004.8 2.6
24/12:30am 18.9 18.4 18.7 99 0.1 N 19 22 10 12 1006.0 1004.5 2.6
24/12:00am 18.9 18.2 18.7 99 0.1 N 20 28 11 15 1006.0 1004.5 2.6
 
Date/Time
EDT
Temp
°C
App
Temp
°C
Dew
Point
°C
Rel
Hum
%
Delta-T
°C
Wind Press
QNH
hPa
Press
MSL
hPa
Rain since
9am
mm
Dir  Spd
km/h
Gust
km/h
Spd
kts
Gust
kts
23/11:30pm 18.9 18.8 18.7 99 0.1 N 17 19 9 10 1006.2 1004.8 2.6
23/11:00pm 18.7 19.7 18.7 100 0.0 N 11 19 6 10 1006.1 1004.7 2.6
23/10:30pm 18.9 20.8 18.9 100 0.0 N 7 9 4 5 1006.2 1004.8 2.6
23/10:00pm 18.8 19.8 18.6 99 0.1 NNE 11 15 6 8 1005.6 1004.2 2.6
23/09:30pm 18.8 19.4 18.6 99 0.1 NE 13 17 7 9 1005.8 1004.4 2.6
23/09:00pm 18.4 20.5 18.2 99 0.1 SE 4 7 2 4 1006.5 1005.1 2.6
23/08:38pm 18.3 17.5 18.1 99 0.1 SSW 19 32 10 17 1006.7 1005.3 2.6
23/08:30pm 18.2 16.5 18.0 99 0.1 SSW 24 33 13 18 1006.0 1004.5 2.6
23/08:17pm 18.4 18.1 18.2 99 0.1 SW 17 26 9 14 1007.4 1006.0 1.4
23/08:00pm 19.1 19.1 17.1 88 1.2 SW 13 17 7 9 1007.6 1006.2 0.0
23/07:30pm 20.4 18.6 15.4 73 3.0 SW 19 30 10 16 1006.5 1005.1 0.0
23/07:00pm 21.9 18.4 14.5 63 4.4 SSW 26 37 14 20 1006.0 1004.5 0.0
23/06:30pm 25.5 20.0 11.7 42 8.0 SW 32 44 17 24 1005.1 1003.7 0.0
23/06:22pm 26.5 21.7 11.8 40 8.6 SW 28 44 15 24 1004.7 1003.3 0.0
23/06:00pm 29.8 26.4 9.3 28 11.7 SW 17 26 9 14 1004.3 1002.9 0.0
23/05:30pm 32.1 27.6 8.4 23 13.4 W 22 32 12 17 1004.2 1002.8 0.0
23/05:00pm 32.2 27.3 8.4 23 13.5 NW 24 32 13 17 1004.4 1003.0 0.0
23/04:30pm 32.9 27.4 7.7 21 14.2 NW 26 37 14 20 1004.3 1002.9 0.0
23/04:00pm 34.0 28.8 7.1 19 15.1 NNW 24 39 13 21 1004.7 1003.3 0.0
23/03:30pm 34.5 28.6 7.5 19 15.3 NNW 28 39 15 21 1005.0 1003.6 0.0
23/03:00pm 34.1 28.9 7.2 19 15.2 NNW 24 39 13 21 1005.3 1003.9 0.0
23/02:30pm 33.1 27.5 7.1 20 14.5 NNW 26 35 14 19 1005.5 1004.1 0.0
23/02:00pm 32.1 26.9 5.6 19 14.4 NNW 22 37 12 20 1006.1 1004.7 0.0
23/01:30pm 31.7 26.3 8.0 23 13.3 N 26 43 14 23 1006.5 1005.1 0.0
23/01:00pm 31.7 25.8 6.0 20 14.0 N 26 33 14 18 1006.9 1005.5 0.0
23/12:30pm 30.9 24.4 6.7 22 13.3 N 30 39 16 21 1007.2 1005.8 0.0
23/12:00pm 31.3 25.0 5.7 20 13.9 N 28 37 15 20 1007.3 1005.9 0.0
23/11:30am 30.4 24.9 9.3 27 12.0 N 28 35 15 19 1007.6 1006.2 0.0
23/11:00am 29.4 24.8 11.0 32 10.8 N 26 33 14 18 1007.9 1006.5 0.0
23/10:30am 28.3 24.3 10.5 33 10.3 N 22 32 12 17 1008.1 1006.8 0.0
23/10:00am 26.0 22.0 10.6 38 8.8 N 22 30 12 16 1008.5 1007.1 0.0
23/09:30am 25.4 22.8 10.8 40 8.3 N 15 19 8 10 1008.9 1007.5 0.0
23/09:00am 24.9 21.9 10.8 41 8.1 N 17 24 9 13 1008.6 1007.2 0.0
23/08:30am 24.7 20.5 9.8 39 8.3 NNE 22 28 12 15 1008.4 1007.0 0.0
23/08:00am 23.3 20.8 11.0 46 7.0 NNE 15 20 8 11 1008.2 1006.9 0.0
23/07:30am 22.7 20.1 10.8 47 6.7 NNE 15 19 8 10 1008.4 1007.0 0.0
23/07:00am 21.5 18.7 11.2 52 5.8 N 17 19 9 10 1008.5 1007.1 0.0
23/06:30am 21.1 18.9 10.9 52 5.7 N 13 15 7 8 1008.5 1007.1 0.0
23/06:00am 21.2 18.8 10.1 49 6.1 N 13 15 7 8 1008.7 1007.3 0.0
23/05:30am 21.1 18.3 10.0 49 6.1 NNE 15 17 8 9 1008.7 1007.3 0.0
23/05:00am 22.4 20.0 8.5 41 7.5 N 11 22 6 12 1008.8 1007.4 0.0
23/04:30am 20.3 17.5 11.5 57 5.0 N 17 19 9 10 1008.6 1007.2 0.0
23/04:00am 20.1 19.4 12.1 60 4.6 N 7 9 4 5 1008.8 1007.4 0.0
23/03:30am 20.4 19.8 11.6 57 5.0 NNW 6 9 3 5 1009.1 1007.7 0.0
23/03:00am 20.8 20.8 11.2 54 5.4 WNW 2 7 1 4 1009.4 1008.0 0.0
23/02:30am 20.6 20.6 12.3 59 4.8 ENE 4 7 2 4 1009.5 1008.1 0.0
23/02:00am 21.3 20.4 10.5 50 6.0 NNW 6 7 3 4 1009.7 1008.3 0.0
23/01:30am 21.6 19.3 10.4 49 6.2 ENE 13 17 7 9 1009.8 1008.4 0.0
23/01:00am 22.4 19.3 10.2 46 6.8 NE 17 20 9 11 1010.0 1008.7 0.0
23/12:30am 21.5 19.2 11.8 54 5.5 NE 15 19 8 10 1010.4 1009.1 0.0
23/12:00am 20.4 19.1 12.4 60 4.6 ENE 11 13 6 7 1011.0 1009.6 0.0
 
Date/Time
EDT
Temp
°C
App
Temp
°C
Dew
Point
°C
Rel
Hum
%
Delta-T
°C
Wind Press
QNH
hPa
Press
MSL
hPa
Rain since
9am
mm
Dir  Spd
km/h
Gust
km/h
Spd
kts
Gust
kts
22/11:30pm 20.1 18.4 12.6 62 4.3 ENE 13 15 7 8 1011.4 1010.0 0.0
22/11:00pm 21.4 20.2 12.8 58 5.0 ESE 11 13 6 7 1011.7 1010.3 0.0
22/10:30pm 22.0 20.4 12.8 56 5.4 ESE 13 17 7 9 1011.7 1010.3 0.0
22/10:00pm 22.6 20.1 12.3 52 6.0 E 17 22 9 12 1011.6 1010.2 0.0
22/09:30pm 22.7 20.2 12.3 52 6.0 ESE 17 19 9 10 1011.9 1010.5 0.0
22/09:00pm 23.6 20.5 11.6 47 6.9 E 19 26 10 14 1011.6 1010.2 0.0
22/08:30pm 25.0 21.6 11.2 42 7.9 ESE 20 30 11 16 1011.7 1010.3 0.0
22/08:00pm 26.7 24.6 8.2 31 10.2 N 9 11 5 6 1011.6 1010.2 0.0
22/07:30pm 27.6 24.2 7.5 28 11.0 N 15 19 8 10 1011.4 1010.0 0.0
22/07:00pm 29.2 25.8 6.0 23 12.5 NNW 13 19 7 10 1011.3 1009.9 0.0
22/06:30pm 30.4 26.9 5.6 21 13.3 NNW 13 20 7 11 1011.3 1009.9 0.0
22/06:00pm 30.5 27.7 5.0 20 13.6 NW 9 20 5 11 1011.3 1009.9 0.0
22/05:30pm 30.1 26.4 4.7 20 13.4 N 13 22 7 12 1011.8 1010.4 0.0
22/05:00pm 30.5 27.7 5.0 20 13.6 E 9 15 5 8 1012.0 1010.6 0.0
22/04:30pm 30.5 27.6 6.4 22 13.1 N 11 17 6 9 1012.3 1011.0 0.0
22/04:00pm 29.8 26.4 5.8 22 12.9 NNE 13 22 7 12 1012.6 1011.3 0.0
22/03:30pm 29.9 27.3 5.9 22 12.9 WNW 9 17 5 9 1012.9 1011.6 0.0
22/03:00pm 30.1 27.8 7.3 24 12.6 NNW 9 19 5 10 1013.3 1011.9 0.0
22/02:30pm 29.2 27.3 6.6 24 12.3 SSE 6 9 3 5 1013.7 1012.3 0.0
22/02:00pm 28.8 25.8 6.2 24 12.2 ENE 11 20 6 11 1014.0 1012.6 0.0
22/01:30pm 28.4 25.6 5.3 23 12.2 NNW 9 19 5 10 1014.1 1012.8 0.0
22/01:00pm 27.6 23.9 4.6 23 12.0 NNE 13 22 7 12 1014.3 1013.0 0.0
22/12:30pm 27.8 24.2 4.8 23 12.0 ENE 13 24 7 13 1014.5 1013.2 0.0
22/12:00pm 27.5 24.1 3.9 22 12.1 E 11 32 6 17 1014.7 1013.4 0.0
22/11:30am 26.7 22.6 4.5 24 11.5 ENE 15 20 8 11 1015.0 1013.7 0.0
22/11:00am 26.0 21.6 4.5 25 11.0 NE 17 22 9 12 1015.1 1013.8 0.0
22/10:30am 25.6 20.7 4.1 25 10.9 ENE 19 28 10 15 1015.1 1013.8 0.0
22/10:00am 24.5 20.1 4.8 28 10.1 E 17 20 9 11 1015.5 1014.2 0.0
22/09:30am 22.8 19.0 5.7 33 8.8 E 15 19 8 10 1015.8 1014.4 0.0
22/09:00am 20.0 15.7 7.1 43 6.7 ESE 19 22 10 12 1016.0 1014.6 0.0
22/08:30am 17.7 15.3 10.1 61 4.1 ESE 13 22 7 12 1016.2 1014.9 0.0
22/08:00am 15.4 14.3 11.8 79 2.0 SE 9 13 5 7 1016.4 1015.1 0.0
22/07:30am 12.9 12.0 12.6 98 0.2 SE 9 11 5 6 1016.1 1014.8 0.0
22/07:00am 10.6 9.1 10.6 100 0.0 SE 9 11 5 6 1016.2 1014.9 0.0
22/06:30am 9.3 7.5 9.3 100 0.0 S 9 13 5 7 1016.2 1014.9 0.0
22/06:00am 10.0 8.0 10.0 100 0.0 S 11 13 6 7 1016.2 1014.9 0.0
22/05:30am 10.0 8.3 10.0 100 0.0 S 9 11 5 6 1016.0 1014.6 0.0
22/05:00am 9.8 8.7 9.8 100 0.0 S 6 7 3 4 1015.8 1014.4 0.0
22/04:30am 9.7 8.5 9.7 100 0.0 S 6 7 3 4 1015.7 1014.3 0.0

Other Formats:

Comma delimited format used in spreadsheet applications
http://www.bom.gov.au/fwo/IDV60801/IDV60801.94852.axf

JavaScript Object Notation format (JSON) in row-major order
http://www.bom.gov.au/fwo/IDV60801/IDV60801.94852.json